Terminal Aerodrome Forecast
Issued by NWS

Home | Current Version | Previous Version | Text Only | Print | Product List | Glossary On
Versions: 1 2 3 4 5 6 7 8 9 10 11 12 13 14 15 16 17 18 19 20 21 22 23 24 25 26 27 28 29
000
FTUS46 KLOX 031159 AAA
TAFLAX
TAF AMD
KLAX 031159Z 0312/0418 25007KT P6SM OVC007
     FM031400 VRB03KT P6SM OVC010
     FM031800 25007KT P6SM SKC
     FM040400 25007KT 5SM HZ BKN008
     FM040900 VRB03KT 5SM BR OVC012
     FM041700 VRB03KT P6SM BKN015=

USA.gov is the U.S. government's official web portal to all federal, state and local government web resources and services.